Terminal Aerodrome Forecast
Issued by NWS Memphis, TN

Home | Current Version | Previous Version | Text Only | Print | Product List | Glossary On
Versions: 1 2 3 4 5 6 7 8 9 10 11 12 13 14 15 16 17 18 19 20 21 22 23 24 25 26 27 28 29 30 31 32
674
FTUS44 KMEG 162050 AAA
TAFMEM
TAF AMD
KMEM 162050Z 1621/1718 21009KT P6SM SCT025 SCT250
     FM170100 19008KT P6SM FEW035 SCT250
     FM171300 23011KT P6SM SCT035 BKN050=

USA.gov is the U.S. government's official web portal to all federal, state and local government web resources and services.